Time;durP1;ratioP1;P1;durP2;ratioP2;P2;SDS_P1;SDS_P2;PMS_P1;PMS_P2;Temp;Humidity;BMP_temperature;BMP_pressure;BME280_temperature;BME280_humidity;BME280_pressure;Samples;Min_cycle;Max_cycle;Signal;HPM_P1;HPM_P2
2022/02/11 00:07:34;;;;;;;24.93;5.60;;;3.30;89.50;;;;;;5011249;28;20555;-92
2022/02/11 00:10:01;;;;;;;21.53;4.70;;;3.30;89.70;;;;;;5015854;28;20199;-92
2022/02/11 00:12:27;;;;;;;9.33;4.40;;;3.30;89.60;;;;;;5016267;28;20230;-93
2022/02/11 00:17:22;;;;;;;14.47;5.13;;;3.30;89.50;;;;;;5034137;28;20180;-92
2022/02/11 00:19:48;;;;;;;28.37;4.93;;;3.30;89.50;;;;;;5015819;28;20211;-92
2022/02/11 00:22:13;;;;;;;15.30;4.60;;;3.30;89.60;;;;;;5016108;28;20672;-91
2022/02/11 00:24:42;;;;;;;17.43;5.03;;;3.30;89.70;;;;;;5016558;28;20200;-92
2022/02/11 00:27:42;;;;;;;13.53;4.53;;;3.30;89.70;;;;;;5020510;28;20212;-91
2022/02/11 00:32:35;;;;;;;18.87;4.77;;;3.30;89.60;;;;;;5038329;28;20183;-92
2022/02/11 00:35:12;;;;;;;7.27;3.60;;;3.40;89.50;;;;;;5020793;28;20540;-91
2022/02/11 00:37:40;;;;;;;10.83;3.87;;;3.40;89.40;;;;;;5020427;28;20202;-91
2022/02/11 00:40:34;;;;;;;19.87;4.73;;;3.40;89.60;;;;;;5040038;28;20176;-90
2022/02/11 00:46:11;;;;;;;7.80;3.50;;;3.40;89.50;;;;;;5037476;28;20238;-91
2022/02/11 01:02:24;;;;;;;11.33;3.33;;;3.50;89.20;;;;;;5037503;28;20214;-91
2022/02/11 01:04:50;;;;;;;13.50;3.83;;;3.50;89.30;;;;;;5019041;28;20203;-91
2022/02/11 01:07:15;;;;;;;21.37;4.37;;;3.50;89.20;;;;;;5019115;28;20173;-91
2022/02/11 01:09:44;;;;;;;15.50;4.03;;;3.50;89.30;;;;;;5019362;28;20196;-92
2022/02/11 01:12:11;;;;;;;21.93;4.13;;;3.60;89.30;;;;;;5020120;28;20201;-92
2022/02/11 01:14:53;;;;;;;14.87;3.87;;;3.60;89.00;;;;;;5020759;28;20187;-92
2022/02/11 01:20:11;;;;;;;19.17;4.37;;;3.50;89.10;;;;;;5037862;28;20196;-92
2022/02/11 01:30:29;;;;;;;15.80;4.60;;;3.40;89.30;;;;;;5036793;28;20203;-90
2022/02/11 02:01:29;;;;;;;16.77;4.80;;;3.00;89.80;;;;;;5035917;28;20187;-90
2022/02/11 02:09:59;;;;;;;12.13;4.33;;;2.80;90.10;;;;;;5036201;28;20704;-90
2022/02/11 02:25:27;;;;;;;12.97;4.57;;;2.80;90.40;;;;;;5035776;28;20294;-90
2022/02/11 02:57:47;;;;;;;10.33;4.23;;;2.40;90.70;;;;;;5035337;28;20259;-89
2022/02/11 03:00:53;;;;;;;12.83;4.70;;;2.40;90.60;;;;;;5018202;28;20177;-89
2022/02/11 03:52:37;;;;;;;16.77;5.13;;;1.90;91.80;;;;;;5034518;28;20690;-89
2022/02/11 03:57:49;;;;;;;13.93;5.77;;;1.90;91.70;;;;;;5033973;28;20190;-92
2022/02/11 04:20:16;;;;;;;17.47;6.57;;;1.90;91.70;;;;;;5034042;28;20275;-92
2022/02/11 04:22:28;;;;;;;18.97;7.03;;;1.90;91.80;;;;;;5033857;28;20253;-90
2022/02/11 05:00:14;;;;;;;20.40;6.83;;;1.90;91.40;;;;;;5033660;28;20290;-90
2022/02/11 05:02:45;;;;;;;18.40;6.77;;;1.90;91.60;;;;;;5015768;28;20187;-90
2022/02/11 05:05:11;;;;;;;11.27;6.67;;;1.90;91.60;;;;;;5016186;28;20239;-90
2022/02/11 05:07:36;;;;;;;22.33;7.63;;;2.00;91.60;;;;;;5015439;28;20177;-90
2022/02/11 05:10:04;;;;;;;21.00;8.57;;;2.00;91.50;;;;;;5015466;28;20630;-91
2022/02/11 05:12:29;;;;;;;12.13;7.13;;;1.90;91.40;;;;;;5018766;28;20617;-90
2022/02/11 05:14:55;;;;;;;21.27;9.10;;;1.90;91.50;;;;;;5023218;28;20230;-90
2022/02/11 05:17:21;;;;;;;20.50;8.00;;;1.80;91.50;;;;;;5019162;28;20258;-90
2022/02/11 05:19:46;;;;;;;22.20;8.47;;;1.80;91.70;;;;;;5019437;28;20290;-90
2022/02/11 05:22:12;;;;;;;21.07;7.87;;;1.80;91.80;;;;;;5019248;28;20189;-91
2022/02/11 05:24:37;;;;;;;19.57;8.30;;;1.70;91.80;;;;;;5019007;28;20200;-90
2022/02/11 05:27:03;;;;;;;20.40;8.90;;;1.70;91.90;;;;;;5019099;28;20646;-91
2022/02/11 05:29:29;;;;;;;17.83;8.87;;;1.70;91.90;;;;;;5018838;28;20673;-90
2022/02/11 05:31:54;;;;;;;14.07;8.07;;;1.70;92.00;;;;;;5018878;28;20171;-91
2022/02/11 05:34:20;;;;;;;20.53;8.37;;;1.70;91.90;;;;;;5018818;28;20175;-90
2022/02/11 05:36:45;;;;;;;28.30;9.93;;;1.70;92.00;;;;;;5018855;28;20188;-91
2022/02/11 05:39:11;;;;;;;19.70;8.83;;;1.70;92.10;;;;;;5018782;28;20207;-91
2022/02/11 05:41:37;;;;;;;22.20;10.07;;;1.80;92.10;;;;;;5018877;28;20223;-91
2022/02/11 05:44:02;;;;;;;20.20;9.50;;;1.80;92.10;;;;;;5018736;28;20270;-91
2022/02/11 05:46:29;;;;;;;22.23;9.83;;;1.80;92.10;;;;;;5018886;28;20213;-91
2022/02/11 05:48:55;;;;;;;27.40;10.00;;;1.80;92.20;;;;;;5018984;28;20200;-91
2022/02/11 05:51:21;;;;;;;24.30;9.33;;;1.80;92.20;;;;;;5018408;28;20654;-91
2022/02/11 05:53:46;;;;;;;26.70;9.77;;;1.90;92.20;;;;;;5018720;28;20183;-91
2022/02/11 05:56:12;;;;;;;20.57;8.83;;;1.90;92.20;;;;;;5036570;28;20687;-91
2022/02/11 05:58:38;;;;;;;18.53;8.73;;;2.00;92.10;;;;;;5018485;28;20215;-91
2022/02/11 06:01:05;;;;;;;25.40;9.23;;;2.00;92.10;;;;;;5018649;28;20179;-91
2022/02/11 06:03:30;;;;;;;23.60;9.87;;;2.00;92.00;;;;;;5019135;28;20251;-91
2022/02/11 06:05:56;;;;;;;16.07;8.43;;;2.00;92.00;;;;;;5018713;28;20743;-91
2022/02/11 06:08:21;;;;;;;16.33;8.57;;;2.10;91.90;;;;;;5018346;28;20214;-91
2022/02/11 06:10:48;;;;;;;26.17;9.17;;;2.10;91.80;;;;;;5018598;28;20275;-91
2022/02/11 06:13:14;;;;;;;20.00;8.23;;;2.10;91.80;;;;;;5018576;28;20190;-91
2022/02/11 06:15:42;;;;;;;21.00;9.00;;;2.10;91.70;;;;;;5018135;28;20182;-91
2022/02/11 06:18:07;;;;;;;22.60;8.70;;;2.10;91.70;;;;;;5017904;28;20211;-91
2022/02/11 06:20:33;;;;;;;20.13;8.70;;;2.10;91.80;;;;;;5018127;28;20183;-91
2022/02/11 06:22:58;;;;;;;18.83;8.77;;;2.20;91.70;;;;;;5017447;28;20270;-90
2022/02/11 06:25:24;;;;;;;24.03;9.00;;;2.30;91.70;;;;;;5018105;28;20205;-91
2022/02/11 06:27:50;;;;;;;20.07;9.37;;;2.20;91.60;;;;;;5018068;28;20171;-91
2022/02/11 06:30:15;;;;;;;20.00;9.80;;;2.20;91.60;;;;;;5018143;28;20215;-91
2022/02/11 06:32:41;;;;;;;20.30;8.67;;;2.30;91.60;;;;;;5018422;28;20180;-89
2022/02/11 06:35:11;;;;;;;20.10;9.30;;;2.20;91.60;;;;;;5017632;28;20176;-90
2022/02/11 06:37:37;;;;;;;18.60;9.23;;;2.30;91.70;;;;;;5017989;28;20188;-90
2022/02/11 06:40:03;;;;;;;26.40;9.73;;;2.30;91.60;;;;;;5017664;28;20188;-90
2022/02/11 06:42:29;;;;;;;23.43;10.60;;;2.30;91.60;;;;;;5018323;28;20279;-90
2022/02/11 06:44:55;;;;;;;18.93;9.13;;;2.30;91.50;;;;;;5017159;28;20210;-90
2022/02/11 06:47:21;;;;;;;16.47;9.63;;;2.40;91.50;;;;;;5018190;28;20505;-90
2022/02/11 06:49:50;;;;;;;27.50;10.63;;;2.40;91.60;;;;;;5017405;28;20196;-90
2022/02/11 06:52:15;;;;;;;19.00;10.37;;;2.50;91.50;;;;;;5017367;28;20172;-90
2022/02/11 06:54:41;;;;;;;18.87;10.67;;;2.50;91.50;;;;;;5017194;28;20649;-90
2022/02/11 06:57:07;;;;;;;23.37;9.03;;;2.50;91.50;;;;;;5017309;28;20199;-90
2022/02/11 06:59:32;;;;;;;13.00;7.67;;;2.60;91.30;;;;;;5017168;28;20239;-89
2022/02/11 07:01:58;;;;;;;10.27;6.73;;;2.70;91.00;;;;;;5017163;28;20249;-89
2022/02/11 07:04:24;;;;;;;11.43;7.50;;;2.70;91.00;;;;;;5017021;28;20638;-90
2022/02/11 07:06:50;;;;;;;20.07;9.03;;;2.70;91.10;;;;;;5017191;28;20181;-90
2022/02/11 07:09:15;;;;;;;19.23;9.60;;;2.70;91.10;;;;;;5017299;28;20635;-90
2022/02/11 07:11:41;;;;;;;20.73;9.60;;;2.70;91.20;;;;;;5017113;28;20243;-90
2022/02/11 07:14:06;;;;;;;16.20;10.10;;;2.70;91.20;;;;;;5017079;28;20179;-90
2022/02/11 07:16:32;;;;;;;15.70;9.70;;;2.70;91.20;;;;;;5017709;28;20184;-90
2022/02/11 07:18:57;;;;;;;19.07;9.17;;;2.70;91.30;;;;;;5016653;28;20682;-90
2022/02/11 07:21:23;;;;;;;10.13;7.30;;;2.70;91.40;;;;;;5016804;28;20230;-90
2022/02/11 07:23:48;;;;;;;8.93;6.40;;;2.70;91.30;;;;;;5017111;28;20231;-90
2022/02/11 07:26:14;;;;;;;5.83;5.23;;;2.70;91.40;;;;;;5016720;28;20211;-90
2022/02/11 07:28:40;;;;;;;5.27;4.70;;;2.70;91.60;;;;;;5017068;28;20202;-90
2022/02/11 07:31:05;;;;;;;6.37;4.57;;;2.70;91.80;;;;;;5017582;28;20184;-90
2022/02/11 07:33:31;;;;;;;6.23;4.43;;;2.80;91.90;;;;;;5017034;28;20186;-89
2022/02/11 07:35:56;;;;;;;4.00;3.70;;;2.80;92.00;;;;;;5015850;28;20709;-89
2022/02/11 07:38:22;;;;;;;4.40;4.00;;;2.70;92.10;;;;;;5016508;28;20231;-90
2022/02/11 07:40:48;;;;;;;5.70;4.13;;;2.70;92.30;;;;;;5017141;28;20183;-92
2022/02/11 07:43:14;;;;;;;3.40;3.20;;;2.70;92.40;;;;;;5017640;28;20640;-89
2022/02/11 07:45:39;;;;;;;4.80;4.40;;;2.70;92.40;;;;;;5016813;28;20283;-90
2022/02/11 07:48:05;;;;;;;5.97;4.00;;;2.70;92.40;;;;;;5016732;28;20575;-90
2022/02/11 07:50:31;;;;;;;4.30;4.00;;;2.70;92.40;;;;;;5034158;28;20176;-89
2022/02/11 07:52:57;;;;;;;4.20;3.90;;;2.80;92.20;;;;;;5016096;28;20595;-90
2022/02/11 07:55:23;;;;;;;4.27;3.97;;;2.80;92.20;;;;;;5016075;28;20234;-90
2022/02/11 07:57:49;;;;;;;4.50;4.10;;;2.80;92.20;;;;;;5033355;28;20227;-90
2022/02/11 08:00:14;;;;;;;3.97;3.67;;;2.80;92.20;;;;;;5015972;28;20202;-90
2022/02/11 08:02:40;;;;;;;3.77;3.50;;;2.80;92.20;;;;;;5015880;28;20338;-90
2022/02/11 08:05:07;;;;;;;4.60;4.30;;;2.80;92.20;;;;;;5016369;28;20204;-90
2022/02/11 08:07:33;;;;;;;4.50;4.10;;;2.80;92.20;;;;;;5015716;28;20262;-90
2022/02/11 08:09:58;;;;;;;4.53;4.13;;;2.80;92.30;;;;;;5015735;28;20228;-90
2022/02/11 08:12:24;;;;;;;5.00;4.50;;;2.80;92.30;;;;;;5016718;28;20177;-90
2022/02/11 08:14:50;;;;;;;5.37;4.87;;;2.90;92.30;;;;;;5015908;28;20181;-90
2022/02/11 08:17:17;;;;;;;4.77;4.40;;;2.90;92.30;;;;;;5015893;28;20190;-90
2022/02/11 08:19:42;;;;;;;4.80;4.40;;;2.90;92.30;;;;;;5015816;28;20201;-91
2022/02/11 08:22:08;;;;;;;4.80;4.50;;;2.90;92.40;;;;;;5016455;28;20708;-90
2022/02/11 08:24:33;;;;;;;4.23;4.03;;;2.90;92.30;;;;;;5015839;28;20246;-90
2022/02/11 08:26:59;;;;;;;4.53;4.23;;;2.90;92.40;;;;;;5015674;28;20181;-90
2022/02/11 08:29:31;;;;;;;4.53;4.23;;;2.90;92.30;;;;;;5015421;28;20306;-90
2022/02/11 08:31:57;;;;;;;5.90;5.10;;;2.90;92.30;;;;;;5015617;28;20266;-90
2022/02/11 08:34:23;;;;;;;8.33;5.30;;;3.00;92.40;;;;;;5016241;28;20173;-90
2022/02/11 08:36:50;;;;;;;5.60;5.20;;;3.00;92.40;;;;;;5033068;28;20173;-89
2022/02/11 08:39:16;;;;;;;8.60;5.23;;;3.00;92.40;;;;;;5015384;28;20291;-90
2022/02/11 08:41:42;;;;;;;9.10;6.70;;;3.10;92.40;;;;;;5017716;28;20185;-91
2022/02/11 08:44:08;;;;;;;8.23;6.23;;;3.10;92.30;;;;;;5015371;28;20187;-90
2022/02/11 08:46:33;;;;;;;10.17;6.77;;;3.00;92.20;;;;;;5017501;28;20211;-91
2022/02/11 08:48:59;;;;;;;7.10;6.47;;;3.10;92.30;;;;;;5019115;28;20294;-89
2022/02/11 08:51:25;;;;;;;7.27;6.57;;;3.10;92.30;;;;;;5020038;28;20235;-88
2022/02/11 08:53:51;;;;;;;7.50;6.80;;;3.00;92.40;;;;;;5019748;28;20287;-89
2022/02/11 08:56:18;;;;;;;12.33;8.40;;;3.10;92.50;;;;;;5019256;28;20215;-90
2022/02/11 08:58:44;;;;;;;16.43;10.90;;;3.00;92.60;;;;;;5018927;28;20243;-90
2022/02/11 09:01:10;;;;;;;17.07;12.00;;;3.00;92.70;;;;;;5019067;28;20184;-90
2022/02/11 09:03:36;;;;;;;24.00;12.20;;;3.00;92.80;;;;;;5019039;28;20183;-91
2022/02/11 09:06:05;;;;;;;19.37;11.57;;;3.00;92.90;;;;;;5020081;28;20242;-90
2022/02/11 09:08:33;;;;;;;15.13;10.73;;;3.00;93.10;;;;;;5018957;28;20326;-90
2022/02/11 09:11:13;;;;;;;18.60;10.90;;;3.00;93.20;;;;;;5018935;28;20184;-88
2022/02/11 09:13:39;;;;;;;18.77;11.00;;;3.00;93.30;;;;;;5036647;28;20149;-89
2022/02/11 09:16:05;;;;;;;22.00;12.07;;;3.00;93.40;;;;;;5018943;28;20180;-90
2022/02/11 09:18:31;;;;;;;23.97;13.00;;;3.00;93.50;;;;;;5018734;28;20266;-91
2022/02/11 09:20:57;;;;;;;18.03;12.77;;;3.00;93.60;;;;;;5018982;28;20701;-92
2022/02/11 09:23:25;;;;;;;27.20;12.17;;;3.00;93.70;;;;;;5019321;28;20185;-91
2022/02/11 09:25:51;;;;;;;17.00;11.73;;;3.10;93.80;;;;;;5018878;28;20691;-90
2022/02/11 09:28:17;;;;;;;17.77;11.50;;;3.10;93.90;;;;;;5018857;28;20204;-90
2022/02/11 09:30:42;;;;;;;19.67;11.47;;;3.10;93.90;;;;;;5018514;28;20180;-90
2022/02/11 09:33:08;;;;;;;22.23;11.63;;;3.10;94.00;;;;;;5018488;28;20184;-90
2022/02/11 09:35:34;;;;;;;26.00;12.83;;;3.20;94.10;;;;;;5018336;28;20187;-90
2022/02/11 09:38:00;;;;;;;19.97;12.70;;;3.20;94.20;;;;;;5018229;28;20204;-90
2022/02/11 09:40:26;;;;;;;28.30;13.77;;;3.20;94.10;;;;;;5018286;28;20229;-90
2022/02/11 09:42:56;;;;;;;24.40;12.13;;;3.20;94.10;;;;;;5018562;28;20184;-90
2022/02/11 09:45:24;;;;;;;23.07;13.23;;;3.30;94.10;;;;;;5018539;28;20193;-89
2022/02/11 09:47:53;;;;;;;20.57;12.97;;;3.30;94.10;;;;;;5018410;28;20184;-90
2022/02/11 09:50:22;;;;;;;23.80;14.60;;;3.30;94.10;;;;;;5018069;28;20172;-90
2022/02/11 09:52:53;;;;;;;25.03;14.30;;;3.50;94.10;;;;;;5018213;28;20189;-90
2022/02/11 09:55:32;;;;;;;21.83;13.83;;;3.60;94.10;;;;;;5035728;28;20267;-90
2022/02/11 09:58:08;;;;;;;22.10;13.00;;;3.60;94.10;;;;;;5016914;28;20235;-90
2022/02/11 10:00:36;;;;;;;21.80;12.50;;;3.60;94.00;;;;;;5018068;28;20219;-90
2022/02/11 10:03:22;;;;;;;22.23;13.57;;;3.60;93.90;;;;;;5018229;28;20660;-90
2022/02/11 10:05:54;;;;;;;16.37;13.13;;;3.70;93.90;;;;;;5017962;28;20604;-90
2022/02/11 10:08:19;;;;;;;23.87;13.70;;;3.70;93.70;;;;;;5018443;28;20253;-90
2022/02/11 10:10:48;;;;;;;22.27;13.07;;;3.80;93.70;;;;;;5019196;28;20211;-87
2022/02/11 10:13:25;;;;;;;21.30;12.30;;;3.90;93.70;;;;;;5019265;28;20176;-90
2022/02/11 10:15:55;;;;;;;14.97;10.27;;;4.00;93.60;;;;;;5018042;28;20173;-90
2022/02/11 10:18:25;;;;;;;16.60;10.53;;;3.90;93.50;;;;;;5018163;28;20539;-90
2022/02/11 10:20:56;;;;;;;13.97;11.13;;;4.00;93.40;;;;;;5017859;28;20260;-90
2022/02/11 10:23:24;;;;;;;16.47;10.77;;;4.10;93.30;;;;;;5017657;28;20164;-91
2022/02/11 10:26:05;;;;;;;10.43;8.77;;;4.20;93.20;;;;;;5017446;28;20213;-91
2022/02/11 10:28:37;;;;;;;14.60;8.73;;;4.30;93.10;;;;;;5017527;28;20198;-90
2022/02/11 10:31:03;;;;;;;8.17;7.33;;;4.30;93.00;;;;;;5017788;28;20190;-91
2022/02/11 10:34:00;;;;;;;9.43;7.90;;;4.30;92.70;;;;;;5017333;28;20654;-91
2022/02/11 10:36:38;;;;;;;9.77;8.40;;;4.30;92.60;;;;;;4980849;28;20185;-90
2022/02/11 10:39:07;;;;;;;10.67;8.37;;;4.30;92.30;;;;;;5017164;28;20197;-91
2022/02/11 10:41:36;;;;;;;13.93;9.23;;;4.30;92.10;;;;;;5017428;28;20183;-90
2022/02/11 10:44:13;;;;;;;15.33;8.27;;;4.30;91.90;;;;;;5018121;28;20169;-91
2022/02/11 10:46:41;;;;;;;16.03;9.53;;;4.40;91.50;;;;;;5017479;28;20297;-91
2022/02/11 10:49:08;;;;;;;10.20;9.17;;;4.40;91.40;;;;;;5017421;28;20280;-91
2022/02/11 10:51:39;;;;;;;15.90;9.90;;;4.50;91.50;;;;;;5035198;28;20166;-91
2022/02/11 10:54:28;;;;;;;16.13;9.63;;;4.50;91.30;;;;;;5017551;28;20166;-91
2022/02/11 10:56:59;;;;;;;17.87;11.10;;;4.50;91.20;;;;;;5017219;28;20679;-91
2022/02/11 10:59:33;;;;;;;22.20;12.87;;;4.60;91.10;;;;;;5017389;28;20618;-90
2022/02/11 11:02:01;;;;;;;21.13;14.20;;;4.70;91.10;;;;;;5017159;28;20199;-90
2022/02/11 11:04:27;;;;;;;17.50;11.50;;;4.70;91.00;;;;;;5017335;28;20179;-90
2022/02/11 11:06:54;;;;;;;16.87;11.67;;;4.60;90.70;;;;;;5034463;28;20226;-90
2022/02/11 11:09:20;;;;;;;20.63;13.07;;;4.60;90.70;;;;;;5016908;28;20203;-90
2022/02/11 11:11:47;;;;;;;12.57;11.23;;;4.70;90.60;;;;;;5017051;28;20179;-90
2022/02/11 11:14:16;;;;;;;14.73;10.97;;;4.60;90.50;;;;;;5016495;28;20176;-91
2022/02/11 11:16:43;;;;;;;13.63;10.93;;;4.70;90.50;;;;;;5016404;28;20265;-91
2022/02/11 11:19:09;;;;;;;11.17;9.93;;;4.70;90.40;;;;;;5016449;28;20229;-89
2022/02/11 11:21:45;;;;;;;12.47;10.47;;;4.70;89.90;;;;;;5016415;28;20335;-89
2022/02/11 11:24:11;;;;;;;15.17;11.07;;;4.70;89.60;;;;;;5016480;28;20179;-90
2022/02/11 11:26:45;;;;;;;13.67;11.10;;;4.70;89.60;;;;;;5016601;28;20706;-89
2022/02/11 11:29:20;;;;;;;13.33;11.10;;;4.70;89.50;;;;;;5016565;28;20204;-90
2022/02/11 11:31:58;;;;;;;16.30;12.23;;;4.80;89.70;;;;;;5016432;28;20635;-89
2022/02/11 11:34:28;;;;;;;16.30;12.07;;;4.80;89.60;;;;;;5016081;28;20639;-90
2022/02/11 11:37:00;;;;;;;17.83;12.47;;;4.90;89.30;;;;;;5016075;28;20167;-90
2022/02/11 11:39:26;;;;;;;18.27;12.30;;;5.10;89.70;;;;;;5015800;28;20614;-90
2022/02/11 11:42:15;;;;;;;24.47;12.33;;;5.30;89.70;;;;;;5015962;28;20310;-90
2022/02/11 11:44:47;;;;;;;19.73;13.03;;;5.30;89.60;;;;;;5033683;28;20220;-90
2022/02/11 11:47:23;;;;;;;13.40;10.57;;;5.30;89.50;;;;;;5016108;28;20177;-90
2022/02/11 11:49:50;;;;;;;14.57;10.03;;;5.30;89.60;;;;;;5033501;28;20218;-90
2022/02/11 11:52:16;;;;;;;12.37;9.60;;;5.20;89.60;;;;;;5016045;28;20275;-90
2022/02/11 11:54:42;;;;;;;12.50;9.97;;;5.20;89.50;;;;;;5016125;28;20215;-90
2022/02/11 11:57:10;;;;;;;15.63;9.47;;;5.20;89.50;;;;;;5016093;28;20207;-90
2022/02/11 11:59:44;;;;;;;18.60;10.77;;;5.10;89.40;;;;;;5015991;28;20214;-90
2022/02/11 12:02:27;;;;;;;20.27;10.40;;;5.10;89.30;;;;;;5017315;28;20179;-90
2022/02/11 12:04:55;;;;;;;21.23;9.40;;;5.10;89.40;;;;;;5016108;28;20192;-90
2022/02/11 12:07:23;;;;;;;21.07;11.13;;;5.10;89.60;;;;;;5033765;28;20163;-90
2022/02/11 12:09:51;;;;;;;18.10;9.73;;;5.10;89.90;;;;;;5016642;28;20209;-89
2022/02/11 12:12:25;;;;;;;19.87;10.30;;;5.20;90.20;;;;;;5016441;28;20649;-90
2022/02/11 12:14:53;;;;;;;12.17;8.47;;;5.30;90.30;;;;;;5016630;28;20621;-89
2022/02/11 12:17:19;;;;;;;10.13;6.50;;;5.30;90.00;;;;;;5015980;28;20267;-89
2022/02/11 12:19:46;;;;;;;7.60;4.07;;;5.10;89.70;;;;;;5016001;28;20198;-89
2022/02/11 12:22:13;;;;;;;2.20;2.00;;;4.90;89.20;;;;;;5015558;28;20532;-89
2022/02/11 12:27:35;;;;;;;4.57;2.20;;;4.40;87.60;;;;;;5033682;28;20166;-90
2022/02/11 12:30:15;;;;;;;3.47;2.50;;;4.30;87.60;;;;;;5033079;28;20197;-89
2022/02/11 12:32:53;;;;;;;4.90;2.63;;;4.30;87.70;;;;;;5033236;28;20237;-89
2022/02/11 12:35:23;;;;;;;2.60;2.20;;;4.20;87.50;;;;;;5016531;28;20170;-90
2022/02/11 12:37:50;;;;;;;4.67;2.30;;;4.20;86.90;;;;;;5015488;28;20180;-88
2022/02/11 12:40:24;;;;;;;9.13;3.00;;;4.20;86.00;;;;;;5015716;28;20182;-92
2022/02/11 12:42:53;;;;;;;9.90;2.47;;;4.20;84.80;;;;;;5017006;28;20177;-91
2022/02/11 12:45:24;;;;;;;8.93;2.40;;;4.20;83.30;;;;;;5015972;28;20293;-92
2022/02/11 12:47:52;;;;;;;5.87;2.90;;;4.30;82.90;;;;;;5015986;28;20166;-92
2022/02/11 12:50:28;;;;;;;3.90;1.90;;;4.30;83.00;;;;;;5016401;28;20179;-93
2022/02/11 12:52:53;;;;;;;7.43;2.37;;;4.30;82.60;;;;;;5018336;28;20166;-92
2022/02/11 12:55:22;;;;;;;6.40;2.30;;;4.30;82.60;;;;;;5015981;28;20201;-91
2022/02/11 12:58:01;;;;;;;6.63;2.37;;;4.30;82.20;;;;;;5015949;28;20181;-92
2022/02/11 13:00:28;;;;;;;8.27;2.67;;;4.40;82.60;;;;;;5015455;28;20184;-90
2022/02/11 13:02:58;;;;;;;6.13;2.53;;;4.40;81.90;;;;;;5016101;28;20189;-90
2022/02/11 13:05:33;;;;;;;5.80;2.30;;;4.30;81.90;;;;;;5015275;28;20293;-90
2022/02/11 13:08:01;;;;;;;6.80;2.37;;;4.50;82.00;;;;;;5033151;28;20197;-89
2022/02/11 13:10:31;;;;;;;6.40;2.00;;;4.50;81.60;;;;;;5033177;28;20207;-88
2022/02/11 13:13:02;;;;;;;6.87;2.53;;;4.50;81.10;;;;;;5015445;28;20178;-89
2022/02/11 13:15:30;;;;;;;12.43;6.77;;;4.50;81.50;;;;;;5015139;28;20272;-89
2022/02/11 13:18:05;;;;;;;11.77;6.67;;;4.60;82.00;;;;;;5014986;28;20183;-89
2022/02/11 13:20:36;;;;;;;8.63;3.73;;;4.60;81.50;;;;;;5015148;28;20239;-89
2022/02/11 13:23:02;;;;;;;13.40;4.10;;;4.60;80.90;;;;;;5016000;28;20170;-90
2022/02/11 13:25:30;;;;;;;11.20;4.50;;;4.70;80.60;;;;;;5015931;28;20241;-91
2022/02/11 13:27:56;;;;;;;13.03;4.77;;;4.80;79.60;;;;;;5015533;28;20648;-91
2022/02/11 13:30:28;;;;;;;7.43;2.60;;;4.90;79.40;;;;;;5016434;28;20218;-91
2022/02/11 13:32:56;;;;;;;9.30;4.80;;;5.00;78.10;;;;;;5017352;28;20263;-92
2022/02/11 13:35:23;;;;;;;7.23;3.60;;;5.10;77.40;;;;;;5021750;28;20264;-93
2022/02/11 13:37:52;;;;;;;10.13;3.13;;;5.30;77.10;;;;;;5019527;28;20665;-91
2022/02/11 13:40:29;;;;;;;11.40;6.03;;;5.20;75.00;;;;;;5020274;28;20611;-93
2022/02/11 13:42:56;;;;;;;7.50;2.57;;;5.30;74.60;;;;;;5034394;28;20213;-94
2022/02/11 13:45:22;;;;;;;5.50;2.07;;;5.30;73.70;;;;;;5035168;28;20206;-94
2022/02/11 13:48:07;;;;;;;4.37;2.00;;;5.30;74.20;;;;;;5035120;28;20723;-94
2022/02/11 13:50:54;;;;;;;4.27;1.90;;;5.30;70.50;;;;;;5033806;28;20180;-94
2022/02/11 13:53:29;;;;;;;4.53;1.80;;;5.30;70.00;;;;;;5021366;28;20218;-94
2022/02/11 13:55:55;;;;;;;5.27;2.20;;;5.40;71.40;;;;;;5036522;28;20174;-91
2022/02/11 13:58:21;;;;;;;5.67;2.27;;;5.50;71.70;;;;;;5035191;28;20225;-94
2022/02/11 14:00:46;;;;;;;8.53;2.70;;;5.60;73.00;;;;;;5037153;28;20270;-95
2022/02/11 14:03:27;;;;;;;6.30;2.47;;;5.70;72.60;;;;;;5038251;28;20183;-92
2022/02/11 14:06:00;;;;;;;6.83;2.00;;;5.80;73.10;;;;;;5055657;28;20195;-94
2022/02/11 14:08:42;;;;;;;7.83;2.20;;;5.60;71.10;;;;;;5037694;28;20263;-94
2022/02/11 14:11:15;;;;;;;8.07;3.67;;;5.70;71.40;;;;;;5038123;28;20167;-94
2022/02/11 14:13:41;;;;;;;7.63;2.00;;;5.80;71.40;;;;;;5056108;28;20212;-94
2022/02/11 14:16:07;;;;;;;5.67;2.37;;;5.70;70.40;;;;;;5034232;28;20184;-94
2022/02/11 14:18:34;;;;;;;6.73;2.80;;;5.70;72.00;;;;;;5052499;28;20199;-94
2022/02/11 14:20:59;;;;;;;6.97;2.20;;;5.70;71.00;;;;;;5037528;28;20211;-94
2022/02/11 14:23:27;;;;;;;8.90;2.20;;;5.50;71.00;;;;;;5036254;28;20183;-93
2022/02/11 14:25:55;;;;;;;11.60;2.80;;;5.50;71.50;;;;;;5036023;28;20214;-94
2022/02/11 14:28:26;;;;;;;8.40;2.43;;;5.50;72.50;;;;;;5033114;28;20195;-94
2022/02/11 14:30:53;;;;;;;9.70;2.43;;;5.70;72.90;;;;;;5034267;28;20207;-94
2022/02/11 14:33:20;;;;;;;7.90;2.03;;;5.80;73.40;;;;;;5032593;28;20244;-94
2022/02/11 14:35:45;;;;;;;12.53;2.53;;;5.80;71.60;;;;;;5033375;28;20190;-94
2022/02/11 14:38:11;;;;;;;8.10;2.20;;;5.70;70.20;;;;;;5031816;28;20199;-94
2022/02/11 14:41:45;;;;;;;5.87;2.17;;;5.60;67.90;;;;;;5031995;28;20190;-94
2022/02/11 14:43:27;;;;;;;9.07;2.60;;;5.50;68.70;;;;;;5050446;28;20245;-94
2022/02/11 14:45:54;;;;;;;11.73;2.70;;;5.40;67.60;;;;;;5033495;28;20225;-94
2022/02/11 14:48:22;;;;;;;8.10;2.50;;;5.40;68.30;;;;;;5034390;28;20223;-94
2022/02/11 14:50:47;;;;;;;8.07;2.20;;;5.40;69.50;;;;;;5049966;28;20176;-94
2022/02/11 14:53:13;;;;;;;10.23;2.67;;;5.30;68.10;;;;;;5034152;28;20200;-93
2022/02/11 14:55:39;;;;;;;8.80;2.53;;;5.30;69.30;;;;;;5034092;28;20182;-94
2022/02/11 14:58:04;;;;;;;12.07;2.57;;;5.30;70.10;;;;;;5031484;28;20212;-94
2022/02/11 15:00:30;;;;;;;10.03;3.10;;;5.20;69.80;;;;;;5031541;28;20176;-94
2022/02/11 15:02:59;;;;;;;14.67;2.63;;;5.20;69.20;;;;;;5031989;28;20281;-93
2022/02/11 15:05:24;;;;;;;8.97;2.33;;;5.10;69.00;;;;;;5033078;28;20204;-93
2022/02/11 15:07:50;;;;;;;12.73;2.83;;;5.10;67.60;;;;;;5032639;28;20213;-94
2022/02/11 15:10:16;;;;;;;8.70;2.33;;;5.10;67.70;;;;;;5031368;28;20174;-94
2022/02/11 15:12:42;;;;;;;5.93;1.97;;;5.00;66.50;;;;;;5032608;28;20188;-94
2022/02/11 15:15:08;;;;;;;9.47;2.37;;;5.00;67.90;;;;;;5032187;28;20755;-94
2022/02/11 15:17:34;;;;;;;7.90;2.00;;;5.00;68.10;;;;;;5034485;28;20227;-94
2022/02/11 15:20:00;;;;;;;7.30;2.00;;;4.90;68.20;;;;;;5027803;28;20616;-94
2022/02/11 15:22:25;;;;;;;10.93;2.63;;;4.90;69.60;;;;;;5049502;28;20223;-94
2022/02/11 15:24:51;;;;;;;12.97;2.30;;;4.80;69.90;;;;;;5031104;28;20266;-94
2022/02/11 15:27:17;;;;;;;8.87;2.57;;;4.80;70.10;;;;;;5032052;28;20182;-94
2022/02/11 15:29:43;;;;;;;9.93;2.77;;;4.80;71.00;;;;;;5030421;28;20279;-93
2022/02/11 15:32:13;;;;;;;9.67;2.20;;;4.70;71.90;;;;;;5019223;28;20187;-90
2022/02/11 15:34:39;;;;;;;10.23;2.80;;;4.70;72.30;;;;;;5016634;28;20178;-90
2022/02/11 15:37:05;;;;;;;17.73;3.43;;;4.70;72.70;;;;;;5016828;28;20171;-90
2022/02/11 15:39:32;;;;;;;17.13;2.67;;;4.70;73.00;;;;;;5016821;28;20263;-90
2022/02/11 15:41:57;;;;;;;14.30;3.13;;;4.90;72.40;;;;;;5016512;28;20179;-91
2022/02/11 15:44:23;;;;;;;8.77;2.40;;;5.00;71.10;;;;;;5016344;28;20182;-91
2022/02/11 15:46:48;;;;;;;11.57;2.40;;;4.80;70.20;;;;;;5017068;28;20231;-91
2022/02/11 15:49:14;;;;;;;8.57;2.37;;;4.90;69.90;;;;;;5016606;28;20207;-91
2022/02/11 15:51:39;;;;;;;8.50;2.77;;;4.80;70.20;;;;;;5015988;28;20179;-91
2022/02/11 15:54:05;;;;;;;9.23;2.60;;;4.70;69.40;;;;;;5016230;28;20179;-91
2022/02/11 15:56:31;;;;;;;13.73;2.60;;;4.70;68.60;;;;;;5015205;28;20708;-89
2022/02/11 15:58:57;;;;;;;12.00;2.40;;;4.90;68.30;;;;;;5015826;28;20764;-91
2022/02/11 16:01:23;;;;;;;8.10;2.10;;;4.80;68.00;;;;;;5016064;28;20192;-91
2022/02/11 16:03:48;;;;;;;8.43;2.10;;;4.80;67.70;;;;;;5016288;28;20654;-91
2022/02/11 16:06:14;;;;;;;5.07;2.20;;;4.90;67.10;;;;;;5017048;28;20235;-93
2022/02/11 16:08:40;;;;;;;9.83;2.40;;;4.80;68.30;;;;;;5018034;28;20195;-91
2022/02/11 16:11:05;;;;;;;5.07;2.20;;;4.80;68.40;;;;;;5015922;28;20270;-92
2022/02/11 16:13:31;;;;;;;5.60;2.07;;;4.40;69.50;;;;;;5016027;28;20278;-91
2022/02/11 16:15:57;;;;;;;5.33;2.17;;;4.40;70.00;;;;;;5016208;28;20191;-92
2022/02/11 16:18:25;;;;;;;5.60;2.17;;;4.30;70.80;;;;;;5015771;28;20237;-91
2022/02/11 16:20:52;;;;;;;14.67;7.70;;;4.20;70.80;;;;;;5016040;28;20182;-91
2022/02/11 16:23:20;;;;;;;20.23;8.37;;;4.30;70.20;;;;;;5016042;28;20595;-91
2022/02/11 16:25:46;;;;;;;21.83;6.83;;;4.40;69.60;;;;;;5016300;28;20209;-91
2022/02/11 16:28:14;;;;;;;12.50;6.97;;;4.40;70.00;;;;;;5015921;28;20202;-92
2022/02/11 16:30:41;;;;;;;20.77;4.90;;;4.40;70.60;;;;;;5016534;28;20177;-91
2022/02/11 16:33:07;;;;;;;10.27;3.90;;;4.30;71.00;;;;;;5015879;28;20198;-92
2022/02/11 16:35:35;;;;;;;14.53;3.13;;;4.30;71.60;;;;;;5016002;28;20278;-91
2022/02/11 16:38:01;;;;;;;14.73;4.77;;;4.00;72.60;;;;;;5016087;28;20201;-92
2022/02/11 16:40:27;;;;;;;17.43;4.63;;;4.00;73.60;;;;;;5015878;28;20186;-91